createdAt,value
2023-04-16T00:01:16.090Z,4.70
2023-04-16T00:03:43.298Z,5.00
2023-04-16T00:06:12.634Z,4.35
2023-04-16T00:08:41.099Z,4.38
2023-04-16T00:11:08.302Z,5.85
2023-04-16T00:13:35.700Z,5.05
2023-04-16T00:16:02.734Z,5.40
2023-04-16T00:18:29.862Z,5.20
2023-04-16T00:20:56.922Z,4.57
2023-04-16T00:23:25.485Z,5.68
2023-04-16T00:25:53.869Z,4.70
2023-04-16T00:28:21.257Z,4.30
2023-04-16T00:30:48.378Z,5.30
2023-04-16T00:33:17.178Z,4.30
2023-04-16T00:35:46.927Z,4.93
2023-04-16T00:38:14.820Z,4.43
2023-04-16T00:40:41.877Z,4.90
2023-04-16T00:43:08.956Z,4.68
2023-04-16T00:45:36.601Z,5.18
2023-04-16T00:48:04.569Z,5.00
2023-04-16T00:50:31.864Z,4.82
2023-04-16T00:52:59.069Z,5.03
2023-04-16T00:55:26.485Z,4.93
2023-04-16T00:57:53.605Z,5.35
2023-04-16T01:00:21.655Z,5.95
2023-04-16T01:02:49.079Z,4.90
2023-04-16T01:05:16.314Z,4.85
2023-04-16T01:07:43.299Z,5.70
2023-04-16T01:10:10.634Z,5.55
2023-04-16T01:12:37.718Z,4.82
2023-04-16T01:15:05.226Z,5.18
2023-04-16T01:17:32.469Z,4.88
2023-04-16T01:20:00.573Z,5.10
2023-04-16T01:22:28.579Z,4.75
2023-04-16T01:24:55.798Z,4.95
2023-04-16T01:27:23.961Z,4.88
2023-04-16T01:29:51.304Z,4.53
2023-04-16T01:32:23.230Z,5.15
2023-04-16T01:34:50.488Z,4.70
2023-04-16T01:37:17.689Z,4.43
2023-04-16T01:39:46.624Z,4.45
2023-04-16T01:42:13.668Z,4.13
2023-04-16T01:44:40.724Z,4.75
2023-04-16T01:47:08.641Z,4.35
2023-04-16T01:49:36.556Z,4.28
2023-04-16T01:52:03.645Z,4.25
2023-04-16T01:54:31.005Z,4.50
2023-04-16T01:56:59.134Z,4.38
2023-04-16T01:59:26.185Z,4.72
2023-04-16T02:01:53.898Z,4.65
2023-04-16T02:04:21.176Z,4.40
2023-04-16T02:06:48.262Z,4.32
2023-04-16T02:09:15.704Z,4.88
2023-04-16T02:11:43.140Z,4.40
2023-04-16T02:14:10.400Z,4.85
2023-04-16T02:16:37.983Z,4.57
2023-04-16T02:19:11.823Z,3.83
2023-04-16T02:21:40.159Z,3.97
2023-04-16T02:24:07.392Z,4.15
2023-04-16T02:26:35.473Z,3.80
2023-04-16T02:29:08.322Z,3.55
2023-04-16T02:31:43.169Z,3.80
2023-04-16T02:34:11.160Z,4.10
2023-04-16T02:36:38.522Z,4.97
2023-04-16T02:39:05.721Z,3.88
2023-04-16T02:41:32.801Z,4.25
2023-04-16T02:43:59.900Z,4.65
2023-04-16T02:46:27.266Z,3.92
2023-04-16T02:48:54.330Z,4.40
2023-04-16T02:51:21.486Z,3.70
2023-04-16T02:53:48.628Z,3.70
2023-04-16T02:56:15.928Z,3.95
2023-04-16T02:58:42.962Z,3.55
2023-04-16T03:01:10.064Z,4.20
2023-04-16T03:03:37.303Z,4.13
2023-04-16T03:06:04.499Z,3.70
2023-04-16T03:08:31.507Z,3.83
2023-04-16T03:10:58.546Z,3.47
2023-04-16T03:13:25.992Z,3.88
2023-04-16T03:15:53.124Z,3.65
2023-04-16T03:18:20.391Z,3.40
2023-04-16T03:20:54.286Z,3.83
2023-04-16T03:23:21.693Z,5.93
2023-04-16T03:25:48.746Z,4.07
2023-04-16T03:28:18.943Z,3.40
2023-04-16T03:30:54.266Z,4.00
2023-04-16T03:33:21.770Z,3.75
2023-04-16T03:35:56.193Z,3.42
2023-04-16T03:38:25.992Z,3.30
2023-04-16T03:40:55.742Z,3.70
2023-04-16T03:43:22.892Z,3.90
2023-04-16T03:45:50.161Z,3.53
2023-04-16T03:48:20.736Z,3.42
2023-04-16T03:50:48.606Z,3.60
2023-04-16T03:53:17.652Z,3.45
2023-04-16T03:55:53.965Z,3.17
2023-04-16T03:58:22.140Z,3.78
2023-04-16T04:00:49.561Z,3.42
2023-04-16T04:03:18.640Z,3.83
2023-04-16T04:05:48.613Z,3.47
2023-04-16T04:08:20.954Z,3.15
2023-04-16T04:10:48.124Z,3.28
2023-04-16T04:13:15.901Z,3.28
2023-04-16T04:15:44.548Z,3.20
2023-04-16T04:18:11.795Z,3.33
2023-04-16T04:20:41.845Z,3.70
2023-04-16T04:23:09.179Z,3.75
2023-04-16T04:25:36.485Z,3.50
2023-04-16T04:28:03.784Z,3.90
2023-04-16T04:30:30.895Z,3.25
2023-04-16T04:32:58.499Z,3.65
2023-04-16T04:35:26.040Z,3.13
2023-04-16T04:37:53.665Z,3.33
2023-04-16T04:40:21.634Z,3.47
2023-04-16T04:42:48.875Z,3.28
2023-04-16T04:45:16.185Z,3.83
2023-04-16T04:47:43.406Z,3.15
2023-04-16T04:50:11.424Z,4.18
2023-04-16T04:52:39.143Z,3.47
2023-04-16T04:55:07.792Z,3.42
2023-04-16T04:57:35.840Z,3.00
2023-04-16T05:00:04.671Z,3.42
2023-04-16T05:02:40.560Z,3.55
2023-04-16T05:05:08.256Z,4.55
2023-04-16T05:07:35.367Z,3.40
2023-04-16T05:10:02.410Z,3.65
2023-04-16T05:12:32.168Z,3.47
2023-04-16T05:14:59.313Z,3.17
2023-04-16T05:17:26.586Z,3.30
2023-04-16T05:19:53.718Z,3.30
2023-04-16T05:22:20.966Z,3.40
2023-04-16T05:24:48.041Z,2.95
2023-04-16T05:27:15.729Z,3.70
2023-04-16T05:29:43.081Z,3.70
2023-04-16T05:32:10.594Z,3.53
2023-04-16T05:34:37.700Z,2.75
2023-04-16T05:37:04.749Z,3.45
2023-04-16T05:39:31.857Z,3.50
2023-04-16T05:41:58.916Z,4.00
2023-04-16T05:44:26.047Z,3.92
2023-04-16T05:46:54.680Z,3.90
2023-04-16T05:49:22.312Z,3.55
2023-04-16T05:51:50.864Z,3.92
2023-04-16T05:54:18.458Z,4.63
2023-04-16T05:56:45.583Z,3.42
2023-04-16T05:59:12.686Z,3.80
2023-04-16T06:01:39.778Z,3.55
2023-04-16T06:04:07.011Z,3.70
2023-04-16T06:06:34.155Z,3.78
2023-04-16T06:09:01.200Z,3.75
2023-04-16T06:11:30.241Z,4.60
2023-04-16T06:13:57.476Z,4.97
2023-04-16T06:16:24.643Z,3.80
2023-04-16T06:18:51.741Z,3.83
2023-04-16T06:21:18.839Z,4.03
2023-04-16T06:23:45.968Z,3.70
2023-04-16T06:26:13.046Z,4.00
2023-04-16T06:28:40.071Z,4.03
2023-04-16T06:31:07.221Z,3.78
2023-04-16T06:33:34.528Z,4.07
2023-04-16T06:36:01.568Z,3.83
2023-04-16T06:38:28.725Z,4.03
2023-04-16T06:40:56.651Z,3.88
2023-04-16T06:43:23.734Z,3.38
2023-04-16T06:45:50.813Z,3.58
2023-04-16T06:48:17.900Z,3.53
2023-04-16T06:50:45.113Z,3.80
2023-04-16T06:53:12.228Z,4.70
2023-04-16T06:55:39.250Z,3.35
2023-04-16T06:58:06.269Z,3.60
2023-04-16T07:00:33.495Z,3.53
2023-04-16T07:03:01.579Z,4.65
2023-04-16T07:05:28.876Z,3.90
2023-04-16T07:07:57.807Z,3.88
2023-04-16T07:10:25.593Z,4.05
2023-04-16T07:12:53.012Z,3.85
2023-04-16T07:15:20.200Z,3.65
2023-04-16T07:17:47.267Z,3.15
2023-04-16T07:20:14.636Z,2.95
2023-04-16T07:22:41.848Z,3.45
2023-04-16T07:25:09.527Z,3.70
2023-04-16T07:27:36.608Z,3.38
2023-04-16T07:30:04.080Z,3.25
2023-04-16T07:32:32.466Z,3.05
2023-04-16T07:34:59.754Z,3.10
2023-04-16T07:37:26.859Z,3.20
2023-04-16T07:39:56.859Z,3.00
2023-04-16T07:42:24.515Z,2.80
2023-04-16T07:44:51.550Z,3.25
2023-04-16T07:47:18.657Z,3.47
2023-04-16T07:49:45.855Z,3.70
2023-04-16T07:52:13.082Z,3.22
2023-04-16T07:54:40.137Z,2.90
2023-04-16T07:57:07.166Z,2.38
2023-04-16T07:59:34.272Z,2.83
2023-04-16T08:02:01.767Z,3.55
2023-04-16T08:04:29.091Z,3.30
2023-04-16T08:06:56.473Z,2.95
2023-04-16T08:09:26.641Z,2.85
2023-04-16T08:11:53.668Z,2.75
2023-04-16T08:14:20.888Z,2.63
2023-04-16T08:16:47.981Z,2.78
2023-04-16T08:19:15.206Z,4.20
2023-04-16T08:21:42.348Z,2.95
2023-04-16T08:24:09.580Z,2.60
2023-04-16T08:26:36.668Z,2.70
2023-04-16T08:29:03.727Z,2.80
2023-04-16T08:31:30.843Z,2.83
2023-04-16T08:33:57.899Z,2.75
2023-04-16T08:36:24.963Z,2.85
2023-04-16T08:38:52.445Z,2.65
2023-04-16T08:41:22.472Z,2.83
2023-04-16T08:43:53.658Z,3.00
2023-04-16T08:46:24.993Z,2.47
2023-04-16T08:48:56.134Z,2.83
2023-04-16T08:51:24.325Z,3.28
2023-04-16T08:54:02.931Z,3.03
2023-04-16T08:56:32.098Z,2.92
2023-04-16T09:01:29.643Z,2.70
2023-04-16T09:03:57.262Z,3.83
2023-04-16T09:06:24.652Z,2.72
2023-04-16T09:08:53.440Z,3.03
2023-04-16T09:11:20.692Z,3.00
2023-04-16T09:13:48.061Z,2.92
2023-04-16T09:16:15.499Z,3.92
2023-04-16T09:18:42.849Z,2.72
2023-04-16T09:21:11.385Z,3.75
2023-04-16T09:23:39.052Z,3.33
2023-04-16T09:26:06.564Z,3.60
2023-04-16T09:28:46.587Z,3.85
2023-04-16T09:31:18.307Z,3.47
2023-04-16T09:34:05.169Z,3.72
2023-04-16T09:39:01.992Z,3.67
2023-04-16T09:41:31.325Z,4.93
2023-04-16T09:44:00.642Z,3.75
2023-04-16T09:46:31.162Z,3.13
2023-04-16T09:48:58.551Z,3.85
2023-04-16T09:51:28.433Z,3.10
2023-04-16T09:53:57.380Z,4.18
2023-04-16T09:59:00.257Z,4.30
2023-04-16T10:01:27.430Z,4.45
2023-04-16T10:03:58.288Z,3.60
2023-04-16T10:06:28.225Z,3.53
2023-04-16T10:08:58.045Z,4.07
2023-04-16T10:11:25.775Z,3.97
2023-04-16T10:13:52.908Z,3.67
2023-04-16T10:16:20.062Z,3.90
2023-04-16T10:18:47.696Z,4.38
2023-04-16T10:21:16.448Z,4.18
2023-04-16T10:23:43.997Z,3.58
2023-04-16T10:26:11.472Z,4.00
2023-04-16T10:28:39.317Z,3.60
2023-04-16T10:31:09.649Z,3.80
2023-04-16T10:33:41.213Z,3.53
2023-04-16T10:36:16.916Z,3.65
2023-04-16T10:38:49.492Z,3.20
2023-04-16T10:41:16.894Z,4.75
2023-04-16T10:43:47.250Z,3.85
2023-04-16T10:46:49.497Z,4.80
2023-04-16T10:49:24.279Z,4.45
2023-04-16T10:51:59.875Z,4.53
2023-04-16T10:54:31.157Z,4.43
2023-04-16T10:57:04.916Z,3.92
2023-04-16T10:59:36.695Z,3.75
2023-04-16T11:02:14.347Z,4.43
2023-04-16T11:04:46.414Z,4.95
2023-04-16T11:07:19.632Z,5.25
2023-04-16T11:09:57.843Z,4.50
2023-04-16T11:12:46.521Z,3.85
2023-04-16T11:15:15.471Z,4.47
2023-04-16T11:17:47.711Z,4.50
2023-04-16T11:20:20.983Z,4.82
2023-04-16T11:22:55.010Z,5.38
2023-04-16T11:25:31.807Z,4.22
2023-04-16T11:27:59.368Z,4.57
2023-04-16T11:30:37.301Z,3.88
2023-04-16T11:33:13.365Z,4.45
2023-04-16T11:35:41.537Z,4.82
2023-04-16T11:38:08.734Z,4.53
2023-04-16T11:40:36.490Z,5.15
2023-04-16T11:43:14.012Z,5.28
2023-04-16T11:46:07.471Z,4.88
2023-04-16T11:48:50.448Z,4.70
2023-04-16T11:51:18.414Z,4.18
2023-04-16T11:53:51.050Z,4.03
2023-04-16T11:56:29.464Z,3.78
2023-04-16T11:59:10.345Z,4.07
2023-04-16T12:01:39.842Z,3.85
2023-04-16T12:04:08.113Z,3.78
2023-04-16T12:06:35.768Z,3.90
2023-04-16T12:09:24.214Z,4.60
2023-04-16T12:11:51.355Z,4.20
2023-04-16T12:14:18.467Z,4.13
2023-04-16T12:16:45.746Z,3.90
2023-04-16T12:19:13.280Z,4.00
2023-04-16T12:21:43.780Z,4.03
2023-04-16T12:24:13.660Z,3.70
2023-04-16T12:26:45.451Z,3.60
2023-04-16T12:29:28.203Z,4.03
2023-04-16T12:31:55.293Z,3.80
2023-04-16T12:34:29.073Z,3.80
2023-04-16T12:37:10.680Z,3.85
2023-04-16T12:39:37.706Z,4.10
2023-04-16T12:42:06.476Z,4.22
2023-04-16T12:44:33.562Z,3.78
2023-04-16T12:47:00.605Z,3.75
2023-04-16T12:49:27.680Z,4.45
2023-04-16T12:51:54.779Z,4.03
2023-04-16T12:54:21.921Z,4.43
2023-04-16T12:56:49.051Z,4.68
2023-04-16T12:59:17.927Z,4.47
2023-04-16T13:01:45.007Z,4.82
2023-04-16T13:04:12.460Z,4.47
2023-04-16T13:06:40.494Z,3.97
2023-04-16T13:09:07.842Z,4.88
2023-04-16T13:11:34.973Z,4.20
2023-04-16T13:14:03.020Z,4.13
2023-04-16T13:16:30.165Z,4.05
2023-04-16T13:18:57.359Z,4.28
2023-04-16T13:21:27.323Z,4.35
2023-04-16T13:23:54.402Z,3.88
2023-04-16T13:26:22.223Z,4.05
2023-04-16T13:28:49.296Z,4.45
2023-04-16T13:31:20.023Z,4.32
2023-04-16T13:33:47.310Z,4.10
2023-04-16T13:36:14.630Z,4.40
2023-04-16T13:38:42.320Z,4.20
2023-04-16T13:41:11.830Z,4.50
2023-04-16T13:43:38.936Z,4.50
2023-04-16T13:46:06.165Z,4.30
2023-04-16T13:48:33.366Z,5.32
2023-04-16T13:51:00.637Z,5.40
2023-04-16T13:53:27.720Z,4.82
2023-04-16T13:55:54.912Z,5.63
2023-04-16T13:58:22.109Z,4.70
2023-04-16T14:00:49.226Z,4.60
2023-04-16T14:03:16.529Z,4.13
2023-04-16T14:05:43.661Z,4.60
2023-04-16T14:08:11.154Z,3.72
2023-04-16T14:10:38.290Z,3.88
2023-04-16T14:13:05.372Z,4.03
2023-04-16T14:15:32.517Z,4.65
2023-04-16T14:17:59.681Z,4.97
2023-04-16T14:20:26.762Z,4.10
2023-04-16T14:22:53.970Z,4.78
2023-04-16T14:25:21.161Z,4.15
2023-04-16T14:27:48.256Z,4.18
2023-04-16T14:30:16.646Z,4.47
2023-04-16T14:32:43.802Z,4.57
2023-04-16T14:35:12.331Z,5.22
2023-04-16T14:37:39.585Z,4.47
2023-04-16T14:40:09.010Z,4.40
2023-04-16T14:42:37.400Z,5.72
2023-04-16T14:45:06.742Z,9.20
2023-04-16T14:47:34.951Z,5.95
2023-04-16T14:50:03.407Z,8.00
2023-04-16T14:52:33.150Z,4.47
2023-04-16T14:55:00.549Z,4.00
2023-04-16T14:57:27.625Z,4.70
2023-04-16T14:59:54.819Z,5.18
2023-04-16T15:02:22.247Z,4.13
2023-04-16T15:04:49.669Z,3.63
2023-04-16T15:07:16.845Z,3.15
2023-04-16T15:09:43.987Z,3.40
2023-04-16T15:12:11.077Z,3.45
2023-04-16T15:14:38.102Z,4.03
2023-04-16T15:17:07.488Z,4.15
2023-04-16T15:19:34.566Z,4.47
2023-04-16T15:22:01.666Z,4.47
2023-04-16T15:24:28.885Z,4.88
2023-04-16T15:26:56.347Z,3.83
2023-04-16T15:29:23.560Z,3.08
2023-04-16T15:31:50.919Z,3.20
2023-04-16T15:34:18.468Z,3.00
2023-04-16T15:36:45.543Z,2.90
2023-04-16T15:39:12.975Z,2.60
2023-04-16T15:41:53.624Z,2.53
2023-04-16T15:44:27.455Z,3.00
2023-04-16T15:46:54.578Z,3.20
2023-04-16T15:49:21.644Z,3.05
2023-04-16T15:51:48.712Z,2.90
2023-04-16T15:54:15.826Z,3.72
2023-04-16T15:56:42.999Z,3.70
2023-04-16T15:59:10.292Z,3.63
2023-04-16T16:01:37.588Z,3.60
2023-04-16T16:06:34.992Z,4.40
2023-04-16T16:09:02.132Z,4.90
2023-04-16T16:11:29.302Z,4.45
2023-04-16T16:13:56.341Z,4.80
2023-04-16T16:16:23.419Z,5.78
2023-04-16T16:18:50.554Z,4.38
2023-04-16T16:21:17.660Z,4.38
2023-04-16T16:23:44.800Z,4.57
2023-04-16T16:26:11.871Z,4.20
2023-04-16T16:28:39.021Z,4.90
2023-04-16T16:31:07.276Z,4.35
2023-04-16T16:33:34.381Z,4.63
2023-04-16T16:36:01.460Z,4.53
2023-04-16T16:38:28.693Z,4.63
2023-04-16T16:40:55.779Z,4.43
2023-04-16T16:43:23.037Z,4.93
2023-04-16T16:45:50.094Z,5.47
2023-04-16T16:48:17.245Z,4.35
2023-04-16T16:50:44.503Z,4.60
2023-04-16T16:53:11.555Z,4.53
2023-04-16T16:55:38.788Z,4.88
2023-04-16T16:58:06.404Z,5.35
2023-04-16T17:00:34.243Z,5.50
2023-04-16T17:03:01.770Z,4.30
2023-04-16T17:05:29.142Z,4.35
2023-04-16T17:07:56.360Z,4.88
2023-04-16T17:10:24.010Z,5.20
2023-04-16T17:12:51.977Z,4.75
2023-04-16T17:15:21.766Z,5.93
2023-04-16T17:17:49.297Z,5.22
2023-04-16T17:20:16.453Z,4.63
2023-04-16T17:22:43.794Z,5.22
2023-04-16T17:25:11.105Z,6.30
2023-04-16T17:27:38.174Z,6.38
2023-04-16T17:30:06.750Z,4.82
2023-04-16T17:32:35.043Z,4.97
2023-04-16T17:35:04.548Z,5.63
2023-04-16T17:37:33.243Z,5.35
2023-04-16T17:40:00.597Z,6.28
2023-04-16T17:42:27.844Z,5.68
2023-04-16T17:44:54.889Z,5.65
2023-04-16T17:47:22.008Z,5.57
2023-04-16T17:49:49.120Z,5.03
2023-04-16T17:52:16.368Z,5.85
2023-04-16T17:54:43.436Z,5.30
2023-04-16T17:57:10.470Z,7.03
2023-04-16T17:59:37.494Z,5.57
2023-04-16T18:02:05.039Z,5.47
2023-04-16T18:04:32.367Z,4.90
2023-04-16T18:06:59.498Z,6.00
2023-04-16T18:09:27.470Z,5.55
2023-04-16T18:11:54.554Z,5.75
2023-04-16T18:14:21.615Z,6.22
2023-04-16T18:16:49.785Z,6.13
2023-04-16T18:19:16.984Z,6.40
2023-04-16T18:21:44.114Z,6.00
2023-04-16T18:24:11.631Z,5.78
2023-04-16T18:26:40.956Z,6.72
2023-04-16T18:29:09.194Z,6.13
2023-04-16T18:31:36.391Z,6.90
2023-04-16T18:34:03.586Z,7.60
2023-04-16T18:36:31.285Z,7.32
2023-04-16T18:39:01.463Z,6.85
2023-04-16T18:41:31.246Z,6.60
2023-04-16T18:43:58.745Z,6.45
2023-04-16T18:46:26.850Z,6.70
2023-04-16T18:48:54.152Z,6.43
2023-04-16T18:51:21.383Z,6.72
2023-04-16T18:53:48.547Z,7.00
2023-04-16T18:56:15.796Z,7.28
2023-04-16T18:58:43.409Z,7.32
2023-04-16T19:01:13.116Z,7.13
2023-04-16T19:03:40.392Z,7.93
2023-04-16T19:06:07.994Z,6.75
2023-04-16T19:08:35.052Z,7.63
2023-04-16T19:11:02.089Z,6.43
2023-04-16T19:13:30.585Z,7.10
2023-04-16T19:15:59.634Z,7.28
2023-04-16T19:18:27.109Z,7.78
2023-04-16T19:21:01.076Z,7.75
2023-04-16T19:23:28.796Z,6.57
2023-04-16T19:25:57.035Z,6.95
2023-04-16T19:28:25.589Z,6.95
2023-04-16T19:30:53.666Z,6.93
2023-04-16T19:33:20.825Z,6.78
2023-04-16T19:35:47.954Z,6.47
2023-04-16T19:38:15.087Z,7.20
2023-04-16T19:40:49.066Z,6.82
2023-04-16T19:43:16.216Z,6.72
2023-04-16T19:45:47.490Z,6.70
2023-04-16T19:48:14.983Z,6.43
2023-04-16T19:50:42.984Z,6.85
2023-04-16T19:53:11.020Z,7.43
2023-04-16T19:55:41.863Z,7.20
2023-04-16T19:58:09.871Z,6.85
2023-04-16T20:00:38.581Z,6.85
2023-04-16T20:03:06.455Z,6.70
2023-04-16T20:05:34.002Z,7.05
2023-04-16T20:08:01.327Z,6.45
2023-04-16T20:10:29.356Z,6.30
2023-04-16T20:12:56.465Z,6.28
2023-04-16T20:15:23.537Z,6.18
2023-04-16T20:17:50.895Z,6.50
2023-04-16T20:20:18.106Z,8.02
2023-04-16T20:22:45.335Z,6.85
2023-04-16T20:25:14.501Z,8.32
2023-04-16T20:30:08.970Z,7.20
2023-04-16T20:32:36.249Z,7.13
2023-04-16T20:35:05.210Z,13.02
2023-04-16T20:37:32.535Z,9.30
2023-04-16T20:39:59.552Z,7.50
2023-04-16T20:42:27.752Z,9.00
2023-04-16T20:44:56.732Z,9.05
2023-04-16T20:47:24.076Z,8.50
2023-04-16T20:49:52.983Z,6.72
2023-04-16T20:52:21.475Z,6.75
2023-04-16T20:54:52.014Z,10.18
2023-04-16T20:57:19.377Z,7.40
2023-04-16T20:59:46.519Z,7.25
2023-04-16T21:02:13.908Z,6.13
2023-04-16T21:04:41.281Z,7.05
2023-04-16T21:07:08.388Z,7.40
2023-04-16T21:09:35.787Z,7.15
2023-04-16T21:12:03.080Z,6.40
2023-04-16T21:14:30.121Z,6.05
2023-04-16T21:16:57.206Z,6.47
2023-04-16T21:19:24.416Z,6.43
2023-04-16T21:21:51.437Z,6.45
2023-04-16T21:24:18.465Z,5.97
2023-04-16T21:26:45.503Z,6.20
2023-04-16T21:29:12.845Z,6.88
2023-04-16T21:31:40.194Z,5.88
2023-04-16T21:34:07.339Z,5.80
2023-04-16T21:36:35.174Z,5.93
2023-04-16T21:39:02.403Z,6.00
2023-04-16T21:41:29.462Z,6.47
2023-04-16T21:43:56.499Z,7.25
2023-04-16T21:46:23.608Z,6.72
2023-04-16T21:48:50.962Z,5.63
2023-04-16T21:51:18.232Z,5.95
2023-04-16T21:53:45.381Z,6.13
2023-04-16T21:56:12.455Z,6.70
2023-04-16T21:58:39.459Z,7.35
2023-04-16T22:01:08.920Z,6.60
2023-04-16T22:03:40.411Z,6.13
2023-04-16T22:06:08.235Z,7.38
2023-04-16T22:08:35.336Z,5.50
2023-04-16T22:11:03.204Z,6.47
2023-04-16T22:13:36.472Z,6.03
2023-04-16T22:16:04.026Z,6.07
2023-04-16T22:18:34.237Z,5.80
2023-04-16T22:21:01.576Z,6.35
2023-04-16T22:23:28.624Z,6.80
2023-04-16T22:25:56.543Z,5.95
2023-04-16T22:28:23.992Z,6.30
2023-04-16T22:30:51.359Z,6.03
2023-04-16T22:33:18.657Z,6.55
2023-04-16T22:35:46.226Z,6.30
2023-04-16T22:38:13.346Z,5.85
2023-04-16T22:40:40.547Z,5.55
2023-04-16T22:43:07.615Z,6.00
2023-04-16T22:45:34.789Z,5.40
2023-04-16T22:48:02.797Z,6.18
2023-04-16T22:50:31.480Z,5.90
2023-04-16T22:52:58.748Z,6.00
2023-04-16T22:55:25.938Z,5.60
2023-04-16T22:57:53.012Z,6.28
2023-04-16T23:00:20.150Z,5.68
2023-04-16T23:02:47.281Z,5.90
2023-04-16T23:05:14.481Z,5.85
2023-04-16T23:07:41.887Z,5.97
2023-04-16T23:10:09.108Z,5.63
2023-04-16T23:12:39.298Z,5.47
2023-04-16T23:15:07.023Z,5.78
2023-04-16T23:17:35.289Z,5.50
2023-04-16T23:20:05.246Z,6.15
2023-04-16T23:22:32.504Z,6.57
2023-04-16T23:24:59.573Z,6.18
2023-04-16T23:27:26.641Z,6.28
2023-04-16T23:29:53.713Z,5.93
2023-04-16T23:32:21.005Z,6.35
2023-04-16T23:34:48.041Z,5.47
2023-04-16T23:37:15.043Z,6.45
2023-04-16T23:39:42.202Z,6.18
2023-04-16T23:42:09.283Z,6.13
2023-04-16T23:44:36.393Z,5.90
2023-04-16T23:47:03.585Z,5.80
2023-04-16T23:49:30.876Z,5.75
2023-04-16T23:51:58.044Z,6.40
2023-04-16T23:54:25.079Z,5.68
2023-04-16T23:56:52.096Z,6.07
2023-04-16T23:59:19.228Z,5.60
